sensor_id;sensor_type;location;lat;lon;timestamp;noise_LAeq;noise_LA_min;noise_LA_max;noise_LA01;noise_LA95
79200;Laerm;68628;48.714;9.472;2023-08-07T00:01:01;52.99;51.83;54.01;;
79200;Laerm;68628;48.714;9.472;2023-08-07T00:03:27;53.25;52.04;54.20;;
79200;Laerm;68628;48.714;9.472;2023-08-07T00:05:53;53.84;51.84;55.07;;
79200;Laerm;68628;48.714;9.472;2023-08-07T00:08:20;54.15;53.18;55.15;;
79200;Laerm;68628;48.714;9.472;2023-08-07T00:10:46;54.14;53.10;54.99;;
79200;Laerm;68628;48.714;9.472;2023-08-07T00:13:13;54.01;52.61;54.87;;
79200;Laerm;68628;48.714;9.472;2023-08-07T00:15:40;53.98;52.58;55.16;;
79200;Laerm;68628;48.714;9.472;2023-08-07T00:18:06;54.07;52.69;55.01;;
79200;Laerm;68628;48.714;9.472;2023-08-07T00:20:32;54.05;52.68;54.92;;
79200;Laerm;68628;48.714;9.472;2023-08-07T00:22:58;53.95;52.59;54.99;;
79200;Laerm;68628;48.714;9.472;2023-08-07T00:25:24;54.11;52.56;55.10;;
79200;Laerm;68628;48.714;9.472;2023-08-07T00:27:51;54.59;52.94;55.56;;
79200;Laerm;68628;48.714;9.472;2023-08-07T00:30:17;54.75;53.01;55.68;;
79200;Laerm;68628;48.714;9.472;2023-08-07T00:32:43;53.71;52.29;55.83;;
79200;Laerm;68628;48.714;9.472;2023-08-07T00:35:09;52.95;52.11;53.77;;
79200;Laerm;68628;48.714;9.472;2023-08-07T00:37:35;52.85;52.09;53.67;;
79200;Laerm;68628;48.714;9.472;2023-08-07T00:40:01;52.65;51.80;53.44;;
79200;Laerm;68628;48.714;9.472;2023-08-07T00:42:27;52.65;51.76;53.40;;
79200;Laerm;68628;48.714;9.472;2023-08-07T00:44:54;52.72;51.75;53.70;;
79200;Laerm;68628;48.714;9.472;2023-08-07T00:47:20;53.38;51.84;55.37;;
79200;Laerm;68628;48.714;9.472;2023-08-07T00:49:48;54.12;52.88;55.55;;
79200;Laerm;68628;48.714;9.472;2023-08-07T00:52:15;54.46;52.69;56.65;;
79200;Laerm;68628;48.714;9.472;2023-08-07T00:54:42;54.33;52.04;56.51;;
79200;Laerm;68628;48.714;9.472;2023-08-07T00:57:13;53.78;51.27;55.93;;
79200;Laerm;68628;48.714;9.472;2023-08-07T00:59:42;51.99;51.22;53.08;;
79200;Laerm;68628;48.714;9.472;2023-08-07T01:02:12;51.99;50.82;53.30;;
79200;Laerm;68628;48.714;9.472;2023-08-07T01:04:39;52.02;51.16;53.77;;
79200;Laerm;68628;48.714;9.472;2023-08-07T01:07:06;52.00;51.22;53.87;;
79200;Laerm;68628;48.714;9.472;2023-08-07T01:09:32;52.31;51.49;53.14;;
79200;Laerm;68628;48.714;9.472;2023-08-07T01:12:20;53.58;51.50;55.76;;
79200;Laerm;68628;48.714;9.472;2023-08-07T01:15:15;52.55;51.24;55.48;;
79200;Laerm;68628;48.714;9.472;2023-08-07T01:17:44;52.64;51.36;55.13;;
79200;Laerm;68628;48.714;9.472;2023-08-07T01:20:12;52.98;51.29;54.76;;
79200;Laerm;68628;48.714;9.472;2023-08-07T01:22:38;52.96;51.25;54.96;;
79200;Laerm;68628;48.714;9.472;2023-08-07T01:25:05;54.55;51.66;56.21;;
79200;Laerm;68628;48.714;9.472;2023-08-07T01:27:49;55.09;52.75;56.37;;
79200;Laerm;68628;48.714;9.472;2023-08-07T01:30:36;55.20;52.80;56.36;;
79200;Laerm;68628;48.714;9.472;2023-08-07T01:33:26;54.69;52.69;56.21;;
79200;Laerm;68628;48.714;9.472;2023-08-07T01:35:58;54.46;52.48;56.33;;
79200;Laerm;68628;48.714;9.472;2023-08-07T01:38:28;53.62;52.30;54.73;;
79200;Laerm;68628;48.714;9.472;2023-08-07T01:40:57;53.60;51.75;54.93;;
79200;Laerm;68628;48.714;9.472;2023-08-07T01:43:24;53.52;52.20;54.78;;
79200;Laerm;68628;48.714;9.472;2023-08-07T01:45:50;53.75;52.19;55.20;;
79200;Laerm;68628;48.714;9.472;2023-08-07T01:48:16;53.30;51.98;55.11;;
79200;Laerm;68628;48.714;9.472;2023-08-07T01:50:42;53.40;52.14;55.01;;
79200;Laerm;68628;48.714;9.472;2023-08-07T01:53:08;53.64;52.26;55.02;;
79200;Laerm;68628;48.714;9.472;2023-08-07T01:55:35;53.86;52.51;54.69;;
79200;Laerm;68628;48.714;9.472;2023-08-07T01:58:01;53.61;52.06;54.56;;
79200;Laerm;68628;48.714;9.472;2023-08-07T02:00:28;53.47;52.42;54.45;;
79200;Laerm;68628;48.714;9.472;2023-08-07T02:02:54;53.56;52.18;54.50;;
79200;Laerm;68628;48.714;9.472;2023-08-07T02:05:20;53.58;52.32;54.41;;
79200;Laerm;68628;48.714;9.472;2023-08-07T02:07:46;53.46;52.36;54.63;;
79200;Laerm;68628;48.714;9.472;2023-08-07T02:10:12;53.54;52.34;54.47;;
79200;Laerm;68628;48.714;9.472;2023-08-07T02:12:38;53.49;52.06;54.52;;
79200;Laerm;68628;48.714;9.472;2023-08-07T02:15:05;53.65;52.07;54.80;;
79200;Laerm;68628;48.714;9.472;2023-08-07T02:17:31;53.53;52.29;54.64;;
79200;Laerm;68628;48.714;9.472;2023-08-07T02:19:59;53.47;52.56;54.47;;
79200;Laerm;68628;48.714;9.472;2023-08-07T02:22:25;53.44;52.30;54.21;;
79200;Laerm;68628;48.714;9.472;2023-08-07T02:24:51;53.33;52.45;54.10;;
79200;Laerm;68628;48.714;9.472;2023-08-07T02:27:17;53.30;52.46;54.23;;
79200;Laerm;68628;48.714;9.472;2023-08-07T02:29:44;53.35;52.17;54.26;;
79200;Laerm;68628;48.714;9.472;2023-08-07T02:32:10;53.73;52.51;54.72;;
79200;Laerm;68628;48.714;9.472;2023-08-07T02:34:36;53.61;52.60;54.47;;
79200;Laerm;68628;48.714;9.472;2023-08-07T02:37:02;53.68;52.65;54.72;;
79200;Laerm;68628;48.714;9.472;2023-08-07T02:39:28;53.83;52.54;54.78;;
79200;Laerm;68628;48.714;9.472;2023-08-07T02:41:54;53.91;52.56;54.92;;
79200;Laerm;68628;48.714;9.472;2023-08-07T02:44:20;53.92;52.56;54.65;;
79200;Laerm;68628;48.714;9.472;2023-08-07T02:46:47;54.00;52.88;54.79;;
79200;Laerm;68628;48.714;9.472;2023-08-07T02:49:13;53.85;52.80;54.71;;
79200;Laerm;68628;48.714;9.472;2023-08-07T02:51:39;53.89;52.85;54.80;;
79200;Laerm;68628;48.714;9.472;2023-08-07T02:54:05;53.87;52.67;54.84;;
79200;Laerm;68628;48.714;9.472;2023-08-07T02:56:31;53.76;52.70;54.92;;
79200;Laerm;68628;48.714;9.472;2023-08-07T02:58:58;53.80;52.75;54.80;;
79200;Laerm;68628;48.714;9.472;2023-08-07T03:01:24;53.88;52.57;54.87;;
79200;Laerm;68628;48.714;9.472;2023-08-07T03:03:53;53.51;52.56;54.39;;
79200;Laerm;68628;48.714;9.472;2023-08-07T03:06:19;53.48;52.59;54.50;;
79200;Laerm;68628;48.714;9.472;2023-08-07T03:08:45;53.49;52.17;54.39;;
79200;Laerm;68628;48.714;9.472;2023-08-07T03:11:11;53.10;52.02;54.21;;
79200;Laerm;68628;48.714;9.472;2023-08-07T03:13:37;53.06;51.89;54.14;;
79200;Laerm;68628;48.714;9.472;2023-08-07T03:16:05;53.11;51.88;54.13;;
79200;Laerm;68628;48.714;9.472;2023-08-07T03:18:33;53.22;51.88;54.30;;
79200;Laerm;68628;48.714;9.472;2023-08-07T03:20:59;53.23;52.07;54.37;;
79200;Laerm;68628;48.714;9.472;2023-08-07T03:23:27;53.21;51.97;54.27;;
79200;Laerm;68628;48.714;9.472;2023-08-07T03:26:08;53.38;52.09;54.34;;
79200;Laerm;68628;48.714;9.472;2023-08-07T03:28:35;53.35;51.73;54.36;;
79200;Laerm;68628;48.714;9.472;2023-08-07T03:31:02;53.27;51.88;54.34;;
79200;Laerm;68628;48.714;9.472;2023-08-07T03:33:29;53.27;51.51;54.41;;
79200;Laerm;68628;48.714;9.472;2023-08-07T03:35:55;53.23;51.89;54.59;;
79200;Laerm;68628;48.714;9.472;2023-08-07T03:38:21;53.20;51.76;54.13;;
79200;Laerm;68628;48.714;9.472;2023-08-07T03:40:47;53.16;51.75;54.18;;
79200;Laerm;68628;48.714;9.472;2023-08-07T03:43:14;53.23;51.75;54.09;;
79200;Laerm;68628;48.714;9.472;2023-08-07T03:45:40;53.20;51.36;54.17;;
79200;Laerm;68628;48.714;9.472;2023-08-07T03:48:06;53.20;51.57;54.08;;
79200;Laerm;68628;48.714;9.472;2023-08-07T03:50:32;53.11;51.64;54.17;;
79200;Laerm;68628;48.714;9.472;2023-08-07T03:53:02;53.19;51.72;54.11;;
79200;Laerm;68628;48.714;9.472;2023-08-07T03:55:29;53.29;51.59;54.48;;
79200;Laerm;68628;48.714;9.472;2023-08-07T03:57:55;53.33;51.45;54.42;;
79200;Laerm;68628;48.714;9.472;2023-08-07T04:00:21;53.26;51.56;54.44;;
79200;Laerm;68628;48.714;9.472;2023-08-07T04:02:47;53.08;51.59;54.55;;
79200;Laerm;68628;48.714;9.472;2023-08-07T04:05:13;53.20;51.65;54.53;;
79200;Laerm;68628;48.714;9.472;2023-08-07T04:07:40;53.55;51.86;54.46;;
79200;Laerm;68628;48.714;9.472;2023-08-07T04:10:06;53.59;51.91;54.57;;
79200;Laerm;68628;48.714;9.472;2023-08-07T04:12:32;53.38;51.65;54.67;;
79200;Laerm;68628;48.714;9.472;2023-08-07T04:14:58;53.24;51.72;54.84;;
79200;Laerm;68628;48.714;9.472;2023-08-07T04:17:24;53.33;51.81;54.51;;
79200;Laerm;68628;48.714;9.472;2023-08-07T04:19:51;53.02;51.88;54.24;;
79200;Laerm;68628;48.714;9.472;2023-08-07T04:22:18;53.22;51.85;54.28;;
79200;Laerm;68628;48.714;9.472;2023-08-07T04:24:44;53.27;51.79;54.26;;
79200;Laerm;68628;48.714;9.472;2023-08-07T04:27:10;53.02;51.85;54.13;;
79200;Laerm;68628;48.714;9.472;2023-08-07T04:29:36;53.32;51.83;54.32;;
79200;Laerm;68628;48.714;9.472;2023-08-07T04:32:03;53.37;51.91;54.42;;
79200;Laerm;68628;48.714;9.472;2023-08-07T04:34:29;52.67;51.77;54.32;;
79200;Laerm;68628;48.714;9.472;2023-08-07T04:36:55;52.57;51.60;53.80;;
79200;Laerm;68628;48.714;9.472;2023-08-07T04:39:22;52.64;51.48;53.72;;
79200;Laerm;68628;48.714;9.472;2023-08-07T04:41:48;52.80;51.30;53.76;;
79200;Laerm;68628;48.714;9.472;2023-08-07T04:44:17;52.91;51.51;53.99;;
79200;Laerm;68628;48.714;9.472;2023-08-07T04:46:43;52.71;51.24;53.82;;
79200;Laerm;68628;48.714;9.472;2023-08-07T04:49:09;52.49;51.36;53.78;;
79200;Laerm;68628;48.714;9.472;2023-08-07T04:51:35;52.93;51.41;53.97;;
79200;Laerm;68628;48.714;9.472;2023-08-07T04:54:01;52.94;51.51;54.04;;
79200;Laerm;68628;48.714;9.472;2023-08-07T04:56:27;52.98;51.64;54.12;;
79200;Laerm;68628;48.714;9.472;2023-08-07T04:58:54;53.02;51.68;54.01;;
79200;Laerm;68628;48.714;9.472;2023-08-07T05:01:20;52.90;51.57;54.02;;
79200;Laerm;68628;48.714;9.472;2023-08-07T05:03:46;52.77;51.55;54.07;;
79200;Laerm;68628;48.714;9.472;2023-08-07T05:06:12;52.91;51.71;53.80;;
79200;Laerm;68628;48.714;9.472;2023-08-07T05:08:38;52.57;51.24;53.73;;
79200;Laerm;68628;48.714;9.472;2023-08-07T05:11:04;52.31;51.08;53.62;;
79200;Laerm;68628;48.714;9.472;2023-08-07T05:13:30;52.38;50.98;53.85;;
79200;Laerm;68628;48.714;9.472;2023-08-07T05:15:57;52.27;51.18;53.78;;
79200;Laerm;68628;48.714;9.472;2023-08-07T05:18:23;52.22;51.19;53.85;;
79200;Laerm;68628;48.714;9.472;2023-08-07T05:20:49;52.26;51.13;54.13;;
79200;Laerm;68628;48.714;9.472;2023-08-07T05:23:15;52.24;51.19;53.78;;
79200;Laerm;68628;48.714;9.472;2023-08-07T05:25:41;52.30;51.30;53.90;;
79200;Laerm;68628;48.714;9.472;2023-08-07T05:28:07;52.18;51.04;53.91;;
79200;Laerm;68628;48.714;9.472;2023-08-07T05:30:33;52.17;51.12;53.86;;
79200;Laerm;68628;48.714;9.472;2023-08-07T05:32:59;52.16;51.29;53.57;;
79200;Laerm;68628;48.714;9.472;2023-08-07T05:35:26;51.94;51.07;53.78;;
79200;Laerm;68628;48.714;9.472;2023-08-07T05:37:52;51.81;50.93;52.93;;
79200;Laerm;68628;48.714;9.472;2023-08-07T05:40:18;51.78;50.95;53.13;;
79200;Laerm;68628;48.714;9.472;2023-08-07T05:42:44;51.84;50.85;52.92;;
79200;Laerm;68628;48.714;9.472;2023-08-07T05:45:10;51.84;51.01;53.11;;
79200;Laerm;68628;48.714;9.472;2023-08-07T05:47:36;51.94;51.00;52.94;;
79200;Laerm;68628;48.714;9.472;2023-08-07T05:50:03;51.94;50.96;53.16;;
79200;Laerm;68628;48.714;9.472;2023-08-07T05:52:29;51.69;50.83;52.84;;
79200;Laerm;68628;48.714;9.472;2023-08-07T05:54:55;51.68;50.93;52.71;;
79200;Laerm;68628;48.714;9.472;2023-08-07T05:57:21;51.71;50.79;53.13;;
79200;Laerm;68628;48.714;9.472;2023-08-07T05:59:47;51.61;50.76;52.32;;
79200;Laerm;68628;48.714;9.472;2023-08-07T06:02:14;51.63;50.68;52.78;;
79200;Laerm;68628;48.714;9.472;2023-08-07T06:04:40;51.51;50.73;52.67;;
79200;Laerm;68628;48.714;9.472;2023-08-07T06:07:06;51.55;50.94;52.78;;
79200;Laerm;68628;48.714;9.472;2023-08-07T06:09:33;51.56;50.88;52.73;;
79200;Laerm;68628;48.714;9.472;2023-08-07T06:11:59;51.69;50.88;52.55;;
79200;Laerm;68628;48.714;9.472;2023-08-07T06:14:25;51.71;50.98;52.74;;
79200;Laerm;68628;48.714;9.472;2023-08-07T06:16:52;51.63;50.77;52.27;;
79200;Laerm;68628;48.714;9.472;2023-08-07T06:19:18;51.46;50.54;52.19;;
79200;Laerm;68628;48.714;9.472;2023-08-07T06:21:45;51.35;50.79;52.89;;
79200;Laerm;68628;48.714;9.472;2023-08-07T06:24:11;51.32;50.59;51.95;;
79200;Laerm;68628;48.714;9.472;2023-08-07T06:26:37;51.31;50.73;52.68;;
79200;Laerm;68628;48.714;9.472;2023-08-07T06:29:04;54.47;50.74;62.25;;
79200;Laerm;68628;48.714;9.472;2023-08-07T06:31:30;58.96;51.02;63.44;;
79200;Laerm;68628;48.714;9.472;2023-08-07T06:33:56;59.45;52.07;61.70;;
79200;Laerm;68628;48.714;9.472;2023-08-07T06:36:22;60.55;51.16;62.37;;
79200;Laerm;68628;48.714;9.472;2023-08-07T06:38:48;60.14;51.33;62.88;;
79200;Laerm;68628;48.714;9.472;2023-08-07T06:41:14;59.14;51.01;63.57;;
79200;Laerm;68628;48.714;9.472;2023-08-07T06:43:40;54.72;50.70;65.49;;
79200;Laerm;68628;48.714;9.472;2023-08-07T06:46:07;56.06;51.52;64.77;;
79200;Laerm;68628;48.714;9.472;2023-08-07T06:48:33;55.42;52.33;58.81;;
79200;Laerm;68628;48.714;9.472;2023-08-07T06:50:59;56.48;53.22;59.89;;
79200;Laerm;68628;48.714;9.472;2023-08-07T06:53:25;56.57;53.24;60.47;;
79200;Laerm;68628;48.714;9.472;2023-08-07T06:55:51;55.18;52.15;60.64;;
79200;Laerm;68628;48.714;9.472;2023-08-07T06:58:17;55.86;52.08;60.50;;
79200;Laerm;68628;48.714;9.472;2023-08-07T07:00:43;57.59;53.78;62.67;;
79200;Laerm;68628;48.714;9.472;2023-08-07T07:03:10;59.29;55.81;61.87;;
79200;Laerm;68628;48.714;9.472;2023-08-07T07:05:36;58.40;53.87;62.31;;
79200;Laerm;68628;48.714;9.472;2023-08-07T07:08:03;55.98;51.94;64.29;;
79200;Laerm;68628;48.714;9.472;2023-08-07T07:10:29;55.54;51.32;62.21;;
79200;Laerm;68628;48.714;9.472;2023-08-07T07:12:55;54.65;51.43;64.24;;
79200;Laerm;68628;48.714;9.472;2023-08-07T07:15:21;58.16;52.04;66.22;;
79200;Laerm;68628;48.714;9.472;2023-08-07T07:17:47;57.77;52.14;62.09;;
79200;Laerm;68628;48.714;9.472;2023-08-07T07:20:13;56.87;52.97;60.79;;
79200;Laerm;68628;48.714;9.472;2023-08-07T07:22:40;56.71;52.46;60.17;;
79200;Laerm;68628;48.714;9.472;2023-08-07T07:25:06;55.74;51.90;60.68;;
79200;Laerm;68628;48.714;9.472;2023-08-07T07:27:32;55.22;51.87;63.17;;
79200;Laerm;68628;48.714;9.472;2023-08-07T07:29:58;54.77;50.73;64.86;;
79200;Laerm;68628;48.714;9.472;2023-08-07T07:32:24;57.91;51.10;71.57;;
79200;Laerm;68628;48.714;9.472;2023-08-07T07:34:51;58.59;51.77;66.53;;
79200;Laerm;68628;48.714;9.472;2023-08-07T07:37:17;61.84;52.98;67.09;;
79200;Laerm;68628;48.714;9.472;2023-08-07T07:39:43;65.64;51.40;75.50;;
79200;Laerm;68628;48.714;9.472;2023-08-07T07:42:10;59.06;50.91;66.67;;
79200;Laerm;68628;48.714;9.472;2023-08-07T07:44:36;52.53;51.20;54.17;;
79200;Laerm;68628;48.714;9.472;2023-08-07T07:47:04;52.38;51.03;54.63;;
79200;Laerm;68628;48.714;9.472;2023-08-07T07:49:32;52.01;50.94;54.16;;
79200;Laerm;68628;48.714;9.472;2023-08-07T07:51:59;52.53;50.96;60.98;;
79200;Laerm;68628;48.714;9.472;2023-08-07T07:54:25;52.47;50.84;60.14;;
79200;Laerm;68628;48.714;9.472;2023-08-07T07:56:52;51.87;50.90;53.82;;
79200;Laerm;68628;48.714;9.472;2023-08-07T07:59:18;53.31;51.23;57.85;;
79200;Laerm;68628;48.714;9.472;2023-08-07T08:01:44;58.89;51.73;68.26;;
79200;Laerm;68628;48.714;9.472;2023-08-07T08:04:10;57.60;51.28;68.00;;
79200;Laerm;68628;48.714;9.472;2023-08-07T08:06:36;54.16;51.07;67.91;;
79200;Laerm;68628;48.714;9.472;2023-08-07T08:09:03;59.24;50.86;67.69;;
79200;Laerm;68628;48.714;9.472;2023-08-07T08:11:30;58.84;52.01;66.49;;
79200;Laerm;68628;48.714;9.472;2023-08-07T08:13:56;59.33;53.42;67.32;;
79200;Laerm;68628;48.714;9.472;2023-08-07T08:16:22;59.29;52.18;66.54;;
79200;Laerm;68628;48.714;9.472;2023-08-07T08:18:48;59.59;51.95;67.54;;
79200;Laerm;68628;48.714;9.472;2023-08-07T08:21:14;59.42;52.54;67.35;;
79200;Laerm;68628;48.714;9.472;2023-08-07T08:23:41;59.58;53.29;68.06;;
79200;Laerm;68628;48.714;9.472;2023-08-07T08:26:07;59.87;52.90;68.41;;
79200;Laerm;68628;48.714;9.472;2023-08-07T08:28:33;59.66;51.99;67.15;;
79200;Laerm;68628;48.714;9.472;2023-08-07T08:30:59;59.41;52.07;66.45;;
79200;Laerm;68628;48.714;9.472;2023-08-07T08:33:25;60.51;51.90;69.76;;
79200;Laerm;68628;48.714;9.472;2023-08-07T08:35:51;59.92;51.40;68.14;;
79200;Laerm;68628;48.714;9.472;2023-08-07T08:38:17;60.95;51.33;69.22;;
79200;Laerm;68628;48.714;9.472;2023-08-07T08:40:45;54.63;51.19;66.57;;
79200;Laerm;68628;48.714;9.472;2023-08-07T08:43:13;52.21;51.13;62.14;;
79200;Laerm;68628;48.714;9.472;2023-08-07T08:45:41;52.74;51.27;55.62;;
79200;Laerm;68628;48.714;9.472;2023-08-07T08:48:17;54.49;52.83;60.97;;
79200;Laerm;68628;48.714;9.472;2023-08-07T08:50:49;55.67;52.81;61.24;;
79200;Laerm;68628;48.714;9.472;2023-08-07T08:53:17;54.49;52.49;61.86;;
79200;Laerm;68628;48.714;9.472;2023-08-07T08:55:45;54.00;52.42;56.80;;
79200;Laerm;68628;48.714;9.472;2023-08-07T08:58:17;55.30;51.33;62.39;;
79200;Laerm;68628;48.714;9.472;2023-08-07T09:00:44;52.90;51.32;61.57;;
79200;Laerm;68628;48.714;9.472;2023-08-07T09:03:11;52.98;51.53;62.34;;
79200;Laerm;68628;48.714;9.472;2023-08-07T09:05:38;52.90;51.31;62.31;;
79200;Laerm;68628;48.714;9.472;2023-08-07T09:08:05;53.48;51.66;62.74;;
79200;Laerm;68628;48.714;9.472;2023-08-07T09:10:32;58.35;52.11;64.74;;
79200;Laerm;68628;48.714;9.472;2023-08-07T09:13:04;58.24;54.94;64.62;;
79200;Laerm;68628;48.714;9.472;2023-08-07T09:15:38;58.22;54.37;64.96;;
79200;Laerm;68628;48.714;9.472;2023-08-07T09:18:07;57.71;52.08;65.34;;
79200;Laerm;68628;48.714;9.472;2023-08-07T09:20:35;60.39;54.02;66.24;;
79200;Laerm;68628;48.714;9.472;2023-08-07T09:23:05;60.02;52.14;64.03;;
79200;Laerm;68628;48.714;9.472;2023-08-07T09:25:34;54.86;51.60;61.74;;
79200;Laerm;68628;48.714;9.472;2023-08-07T09:28:05;56.42;52.43;61.68;;
79200;Laerm;68628;48.714;9.472;2023-08-07T09:30:34;58.55;53.20;69.14;;
79200;Laerm;68628;48.714;9.472;2023-08-07T09:33:02;62.88;54.24;72.90;;
79200;Laerm;68628;48.714;9.472;2023-08-07T09:35:30;58.66;51.31;71.00;;
79200;Laerm;68628;48.714;9.472;2023-08-07T09:37:58;57.25;52.65;68.66;;
79200;Laerm;68628;48.714;9.472;2023-08-07T09:40:24;55.16;51.44;66.22;;
79200;Laerm;68628;48.714;9.472;2023-08-07T09:42:53;55.34;52.04;65.88;;
79200;Laerm;68628;48.714;9.472;2023-08-07T09:45:21;56.63;53.00;63.54;;
79200;Laerm;68628;48.714;9.472;2023-08-07T09:47:58;56.20;51.60;66.96;;
79200;Laerm;68628;48.714;9.472;2023-08-07T09:50:24;63.54;56.66;70.28;;
79200;Laerm;68628;48.714;9.472;2023-08-07T09:52:51;62.20;56.21;69.09;;
79200;Laerm;68628;48.714;9.472;2023-08-07T09:55:17;57.48;55.68;69.04;;
79200;Laerm;68628;48.714;9.472;2023-08-07T09:57:44;57.99;56.58;68.11;;
79200;Laerm;68628;48.714;9.472;2023-08-07T10:00:12;59.95;55.35;66.69;;
79200;Laerm;68628;48.714;9.472;2023-08-07T10:02:43;69.47;53.46;79.86;;
79200;Laerm;68628;48.714;9.472;2023-08-07T10:05:10;58.26;53.46;70.01;;
79200;Laerm;68628;48.714;9.472;2023-08-07T10:07:39;59.96;52.25;72.20;;
79200;Laerm;68628;48.714;9.472;2023-08-07T10:10:10;59.37;51.54;69.92;;
79200;Laerm;68628;48.714;9.472;2023-08-07T10:12:37;63.86;49.48;75.07;;
79200;Laerm;68628;48.714;9.472;2023-08-07T10:15:04;65.30;49.48;75.76;;
79200;Laerm;68628;48.714;9.472;2023-08-07T10:17:32;66.60;50.10;78.17;;
79200;Laerm;68628;48.714;9.472;2023-08-07T10:19:58;63.26;52.34;76.71;;
79200;Laerm;68628;48.714;9.472;2023-08-07T10:22:27;63.65;53.10;76.12;;
79200;Laerm;68628;48.714;9.472;2023-08-07T10:25:00;62.91;53.26;73.42;;
79200;Laerm;68628;48.714;9.472;2023-08-07T10:27:31;60.54;53.40;69.08;;
79200;Laerm;68628;48.714;9.472;2023-08-07T10:30:02;61.20;54.47;70.55;;
79200;Laerm;68628;48.714;9.472;2023-08-07T10:32:32;62.06;55.44;71.66;;
79200;Laerm;68628;48.714;9.472;2023-08-07T10:34:58;62.46;54.44;72.07;;
79200;Laerm;68628;48.714;9.472;2023-08-07T10:37:44;64.98;56.16;76.25;;
79200;Laerm;68628;48.714;9.472;2023-08-07T10:40:12;65.42;53.30;80.75;;
79200;Laerm;68628;48.714;9.472;2023-08-07T10:42:58;63.16;55.99;69.01;;
79200;Laerm;68628;48.714;9.472;2023-08-07T10:45:27;64.85;56.68;72.97;;
79200;Laerm;68628;48.714;9.472;2023-08-07T10:48:11;66.22;53.63;73.92;;
79200;Laerm;68628;48.714;9.472;2023-08-07T10:51:03;66.65;58.43;75.66;;
79200;Laerm;68628;48.714;9.472;2023-08-07T10:53:52;64.67;51.59;73.47;;
79200;Laerm;68628;48.714;9.472;2023-08-07T10:56:36;61.37;51.86;73.68;;
79200;Laerm;68628;48.714;9.472;2023-08-07T10:59:11;62.40;51.25;72.78;;
79200;Laerm;68628;48.714;9.472;2023-08-07T11:04:13;63.94;51.28;73.36;;
79200;Laerm;68628;48.714;9.472;2023-08-07T11:06:48;62.36;51.31;73.21;;
79200;Laerm;68628;48.714;9.472;2023-08-07T11:09:14;61.53;51.25;71.73;;
79200;Laerm;68628;48.714;9.472;2023-08-07T11:11:47;60.94;51.44;71.41;;
79200;Laerm;68628;48.714;9.472;2023-08-07T11:14:18;60.53;51.24;70.58;;
79200;Laerm;68628;48.714;9.472;2023-08-07T11:16:47;60.71;51.36;70.59;;
79200;Laerm;68628;48.714;9.472;2023-08-07T11:19:17;59.95;51.90;70.20;;
79200;Laerm;68628;48.714;9.472;2023-08-07T11:21:44;59.13;51.73;68.98;;
79200;Laerm;68628;48.714;9.472;2023-08-07T11:24:14;59.01;51.41;68.31;;
79200;Laerm;68628;48.714;9.472;2023-08-07T11:26:44;58.54;51.51;68.39;;
79200;Laerm;68628;48.714;9.472;2023-08-07T11:29:11;58.45;51.63;68.13;;
79200;Laerm;68628;48.714;9.472;2023-08-07T11:31:41;59.90;51.48;69.41;;
79200;Laerm;68628;48.714;9.472;2023-08-07T11:34:07;59.20;52.04;67.34;;
79200;Laerm;68628;48.714;9.472;2023-08-07T11:36:41;61.83;52.14;71.53;;
79200;Laerm;68628;48.714;9.472;2023-08-07T11:39:08;58.94;51.92;67.37;;
79200;Laerm;68628;48.714;9.472;2023-08-07T11:41:34;59.14;52.42;67.47;;
79200;Laerm;68628;48.714;9.472;2023-08-07T11:44:00;59.14;51.91;69.74;;
79200;Laerm;68628;48.714;9.472;2023-08-07T11:46:26;58.39;52.55;68.19;;
79200;Laerm;68628;48.714;9.472;2023-08-07T11:48:52;57.44;52.43;66.39;;
79200;Laerm;68628;48.714;9.472;2023-08-07T11:51:20;57.21;52.78;66.81;;
79200;Laerm;68628;48.714;9.472;2023-08-07T11:53:46;57.25;52.59;67.18;;
79200;Laerm;68628;48.714;9.472;2023-08-07T11:56:13;57.66;51.87;66.64;;
79200;Laerm;68628;48.714;9.472;2023-08-07T11:58:47;56.57;51.85;65.48;;
79200;Laerm;68628;48.714;9.472;2023-08-07T12:01:19;55.33;51.42;65.97;;
79200;Laerm;68628;48.714;9.472;2023-08-07T12:06:30;54.38;51.52;65.61;;
79200;Laerm;68628;48.714;9.472;2023-08-07T12:08:57;54.28;51.62;64.72;;
79200;Laerm;68628;48.714;9.472;2023-08-07T12:11:25;54.02;51.42;64.37;;
79200;Laerm;68628;48.714;9.472;2023-08-07T12:13:51;53.91;51.32;66.48;;
79200;Laerm;68628;48.714;9.472;2023-08-07T12:16:18;53.42;51.50;63.99;;
79200;Laerm;68628;48.714;9.472;2023-08-07T12:18:50;53.32;51.18;62.90;;
79200;Laerm;68628;48.714;9.472;2023-08-07T12:21:20;53.07;51.16;61.28;;
79200;Laerm;68628;48.714;9.472;2023-08-07T12:23:50;52.79;50.98;62.87;;
79200;Laerm;68628;48.714;9.472;2023-08-07T12:26:17;53.66;51.11;62.76;;
79200;Laerm;68628;48.714;9.472;2023-08-07T12:28:43;52.19;50.92;59.73;;
79200;Laerm;68628;48.714;9.472;2023-08-07T12:31:10;52.29;50.92;60.01;;
79200;Laerm;68628;48.714;9.472;2023-08-07T12:33:36;52.13;50.96;59.50;;
79200;Laerm;68628;48.714;9.472;2023-08-07T12:36:02;52.13;50.92;59.18;;
79200;Laerm;68628;48.714;9.472;2023-08-07T12:38:29;52.10;50.91;59.91;;
79200;Laerm;68628;48.714;9.472;2023-08-07T12:40:56;51.89;50.87;58.72;;
79200;Laerm;68628;48.714;9.472;2023-08-07T12:43:22;51.97;51.09;58.87;;
79200;Laerm;68628;48.714;9.472;2023-08-07T12:45:48;51.94;50.90;58.73;;
79200;Laerm;68628;48.714;9.472;2023-08-07T12:48:14;51.73;50.99;58.47;;
79200;Laerm;68628;48.714;9.472;2023-08-07T12:50:41;51.72;51.00;58.18;;
79200;Laerm;68628;48.714;9.472;2023-08-07T12:53:08;51.68;50.88;59.99;;
79200;Laerm;68628;48.714;9.472;2023-08-07T12:55:34;51.70;50.84;58.05;;
79200;Laerm;68628;48.714;9.472;2023-08-07T12:58:00;51.74;50.93;58.54;;
79200;Laerm;68628;48.714;9.472;2023-08-07T13:00:26;51.74;50.78;60.34;;
79200;Laerm;68628;48.714;9.472;2023-08-07T13:02:53;52.17;51.05;58.94;;
79200;Laerm;68628;48.714;9.472;2023-08-07T13:05:22;53.81;51.14;59.84;;
79200;Laerm;68628;48.714;9.472;2023-08-07T13:07:49;53.33;51.33;59.79;;
79200;Laerm;68628;48.714;9.472;2023-08-07T13:10:17;53.30;51.30;60.52;;
79200;Laerm;68628;48.714;9.472;2023-08-07T13:12:47;53.15;51.08;59.39;;
79200;Laerm;68628;48.714;9.472;2023-08-07T13:15:17;53.37;51.48;59.67;;
79200;Laerm;68628;48.714;9.472;2023-08-07T13:17:44;53.25;51.68;59.17;;
79200;Laerm;68628;48.714;9.472;2023-08-07T13:20:13;53.17;51.23;59.17;;
79200;Laerm;68628;48.714;9.472;2023-08-07T13:22:41;53.74;51.73;61.15;;
79200;Laerm;68628;48.714;9.472;2023-08-07T13:25:10;53.70;52.03;59.48;;
79200;Laerm;68628;48.714;9.472;2023-08-07T13:27:37;53.77;51.68;59.84;;
79200;Laerm;68628;48.714;9.472;2023-08-07T13:30:04;53.67;51.64;59.62;;
79200;Laerm;68628;48.714;9.472;2023-08-07T13:32:31;53.43;51.68;59.57;;
79200;Laerm;68628;48.714;9.472;2023-08-07T13:35:00;53.48;51.84;59.14;;
79200;Laerm;68628;48.714;9.472;2023-08-07T13:37:28;53.20;51.82;59.32;;
79200;Laerm;68628;48.714;9.472;2023-08-07T13:39:54;53.13;51.77;59.60;;
79200;Laerm;68628;48.714;9.472;2023-08-07T13:42:24;53.05;51.64;58.96;;
79200;Laerm;68628;48.714;9.472;2023-08-07T13:44:51;52.73;51.47;58.79;;
79200;Laerm;68628;48.714;9.472;2023-08-07T13:47:18;52.62;51.45;59.02;;
79200;Laerm;68628;48.714;9.472;2023-08-07T13:49:46;52.74;51.29;59.10;;
79200;Laerm;68628;48.714;9.472;2023-08-07T13:52:13;52.37;51.04;58.31;;